^^

Meteo Aereoporti Centro-Italia

 

 
LIRZ - Perugia S.Egidio (208 m.)
Dati ricevuti: 03/12/2016 07:00
Coperto
Coperto
 Vento da direzione variabile
Vento: direzione variabile 4 km/h
TEMPERATURA: 8°C
P.to di Rugiada: 8°C
Umidità: 100%
Pressione: 1018 hPa
Nuvole: Coperto
Visibilità: 9 km
Dettagli Nuvole: Coperto 1524 m
2016/12/03 06:00 LIRZ 030600Z VRB02KT 9000 OVC050 08/08 Q1018
 
LIPY - Ancona Falconara (12 m.)
Dati ricevuti: 03/12/2016 06:50
Molto nuvoloso
Molto nuvoloso
 Vento da direzione variabile
Vento: direzione variabile 4 km/h
TEMPERATURA: 7°C
P.to di Rugiada: 6°C
Umidità: 93%
Pressione: 1019 hPa
Nuvole: Molto nuvoloso
Visibilità: 6 km
Dettagli Nuvole: Molto nuvoloso 2134 m
2016/12/03 05:50 LIPY 030550Z VRB02KT 6000 BKN070 07/06 Q1019
 
LIPR - Rimini Miramare (12 m.)
Dati ricevuti: 03/12/2016 07:15
Foschia, Molto Nuvoloso
Foschia, Molto Nuvoloso
 Vento da calm
Vento: Calma
TEMPERATURA: 6°C
P.to di Rugiada: 5°C
Umidità: 93%
Pressione: 1018 hPa
Condizioni generali: Foschia
Nuvole: Molto nuvoloso
Visibilità: 5 km
Dettagli Nuvole: Molto nuvoloso 2134 m
2016/12/03 06:15 LIPR 030615Z 00000KT 5000 BR BKN070 06/05 Q1018
 
LIRF - Roma Fiumicino (2 m.)
Dati ricevuti: 03/12/2016 07:20
Molto nuvoloso
Molto nuvoloso
 Vento da E
Vento: E 11 km/h
TEMPERATURA: 10°C
Raffreddamento da Vento: 8°C
P.to di Rugiada: 7°C
Umidità: 82%
Pressione: 1017 hPa
Nuvole: Molto nuvoloso
Visibilità: 10 km
Dettagli Nuvole: Qualche nuvola 914 m
Molto nuvoloso 1524 m
2016/12/03 06:20 LIRF 030620Z 09006KT 9999 FEW030 BKN050 10/07 Q1017 NOSIG
 
LIRA - Roma Ciampino (129 m.)
Dati ricevuti: 03/12/2016 07:20
Molto nuvoloso
Molto nuvoloso
 Vento da E
Vento: E 7 km/h
TEMPERATURA: 8°C
Raffreddamento da Vento: 7°C
P.to di Rugiada: 5°C
Umidità: 82%
Pressione: 1017 hPa
Nuvole: Molto nuvoloso
Visibilità: 10 km
Dettagli Nuvole: Molto nuvoloso 1372 m
2016/12/03 06:20 LIRA 030620Z 10004KT 9999 BKN045 08/05 Q1017
 
LIRU - Roma Urbe (17 m.)
Dati ricevuti: 02/12/2016 16:50
Dati non aggiornati
Molto nuvoloso
Molto nuvoloso
 Vento da direzione variabile
Vento: direzione variabile 6 km/h
TEMPERATURA: 13°C
P.to di Rugiada: 7°C
Umidità: 67%
Pressione: 1017 hPa
Nuvole: Molto nuvoloso
Visibilità: 8 km
Dettagli Nuvole: Molto nuvoloso 1219 m
2016/12/02 15:50 LIRU 021550Z VRB03KT 8000 BKN040 13/07 Q1017
 
LIVF - Frontone (570 m.)
Dati ricevuti: 29/11/2016 09:55
Dati non aggiornati
Nevischio, Foschia, Molto Nuvoloso
Nevischio, Foschia, Molto Nuvoloso
 Vento da E
Vento: E 11 km/h
TEMPERATURA: 1°C
Raffreddamento da Vento: -2°C
P.to di Rugiada: 0°C
Umidità: 93%
Pressione: 1023 hPa
Condizioni generali: Nevischio, Foschia
Nuvole: Molto nuvoloso
Visibilità: 3 km
Dettagli Nuvole: Poco nuvoloso 305 m
Molto nuvoloso 701 m
2016/11/29 08:55 LIVF 290855Z 08006KT 3000 -SN BR SCT010 BKN023 01/M00 Q1023 RMK OVC MON INVIS VAL INVIS VIS MIN 3000
 
LIRQ - Firenze Peretola (40 m.)
Dati ricevuti: 03/12/2016 07:20
Molto nuvoloso
Molto nuvoloso
 Vento da N
Vento: N 2 km/h
TEMPERATURA: 6°C
P.to di Rugiada: 5°C
Umidità: 93%
Pressione: 1018 hPa
Nuvole: Molto nuvoloso
Visibilità: 7 km
Dettagli Nuvole: Molto nuvoloso 1829 m
2016/12/03 06:20 LIRQ 030620Z 36001KT 7000 BKN060 06/05 Q1018
 
LIBP - Pescara (10 m.)
Dati ricevuti: 03/12/2016 06:50
Sereno
Sereno
 Vento da S
Vento: S 7 km/h
TEMPERATURA: 3°C
Raffreddamento da Vento: 1°C
P.to di Rugiada: 2°C
Umidità: 93%
Pressione: 1018 hPa
Nuvole: Sereno
Visibilità: 10 km
2016/12/03 05:50 LIBP 030550Z AUTO 19004KT 9999 NCD 03/02 Q1018
 
LIRV - Viterbo (300 m.)
Dati ricevuti: 03/12/2016 06:55
Poco nuvoloso
Poco nuvoloso
 Vento da NE
Vento: NE 11 km/h
TEMPERATURA: 8°C
Raffreddamento da Vento: 6°C
P.to di Rugiada: 5°C
Umidità: 82%
Pressione: 1017 hPa
Nuvole: Poco nuvoloso
Visibilità: 10 km
Dettagli Nuvole: Poco nuvoloso 1219 m
2016/12/03 05:55 LIRV 030555Z 04006KT 9999 SCT040 08/05 Q1017
 
LIQN - Rieti (389 m.)
Dati ricevuti: 03/12/2016 07:00
Sereno
Sereno
 Vento da direzione variabile
Vento: direzione variabile 6 km/h
TEMPERATURA: 6°C
P.to di Rugiada: 5°C
Umidità: 93%
Pressione: 1018 hPa
Condizioni generali: Sereno
Visibilità: oltre 10 km
2016/12/03 06:00 LIQN 030600Z VRB03KT CAVOK 06/05 Q1018
 
LIRG - Guidonia -RM- (88 m.)
Dati ricevuti: 02/12/2016 18:55
Dati non aggiornati
Sereno
Sereno
 Vento da W
Vento: W 7 km/h
TEMPERATURA: 10°C
Raffreddamento da Vento: 9°C
P.to di Rugiada: 7°C
Umidità: 82%
Pressione: 1017 hPa
Condizioni generali: Sereno
Visibilità: oltre 10 km
2016/12/02 17:55 LIRG 021755Z 27004KT CAVOK 10/07 Q1017
 
LIRK - Terminillo -RI-(1874 m.)
Dati ricevuti: 15/11/2016 10:55
Dati non aggiornati

 Vento da ESE
Vento: ESE 17 km/h
TEMPERATURA: -2°C
Raffreddamento da Vento: -7°C
P.to di Rugiada: -2°C
Umidità: 100%
Pressione: 1025 hPa
2016/11/15 09:55 LIRK 150955Z AUTO 11009KT //// M02/M02 Q1025
 
LIPK - Forlì (27 m.)
Dati ricevuti: 02/12/2016 17:50
Dati non aggiornati
Poco nuvoloso
Poco nuvoloso
 Vento da direzione variabile
Vento: direzione variabile 2 km/h
TEMPERATURA: 8°C
P.to di Rugiada: 4°C
Umidità: 76%
Pressione: 1014 hPa
Nuvole: Poco nuvoloso
Visibilità: 6 km
2016/12/02 16:50 LIPK 021650Z VRB01KT 6000 NSC 08/04 Q1014
 
LIRS - Grosseto (5 m.)
Dati ricevuti: 03/12/2016 06:55
Poco nuvoloso
Poco nuvoloso
 Vento da N
Vento: N 7 km/h
TEMPERATURA: 10°C
Raffreddamento da Vento: 9°C
P.to di Rugiada: 7°C
Umidità: 82%
Pressione: 1017 hPa
Nuvole: Poco nuvoloso
Visibilità: 10 km
Dettagli Nuvole: Poco nuvoloso 914 m
2016/12/03 05:55 LIRS 030555Z 01004KT 9999 SCT030 10/07 Q1017
 
LIRP - Pisa S.Giusto (2 m.)
Dati ricevuti: 03/12/2016 07:15
Poco nuvoloso
Poco nuvoloso
 Vento da SE
Vento: SE 9 km/h
TEMPERATURA: 10°C
Raffreddamento da Vento: 9°C
P.to di Rugiada: 10°C
Umidità: 100%
Pressione: 1017 hPa
Nuvole: Poco nuvoloso
Visibilità: 10 km
Dettagli Nuvole: Poco nuvoloso 1067 m
Poco nuvoloso 1524 m
2016/12/03 06:15 LIRP 030615Z 13005KT 9999 SCT035 SCT050 10/10 Q1017 NOSIG